Time;durP1;ratioP1;P1;durP2;ratioP2;P2;SDS_P1;SDS_P2;PMS_P1;PMS_P2;Temp;Humidity;BMP_temperature;BMP_pressure;BME280_temperature;BME280_humidity;BME280_pressure;Samples;Min_cycle;Max_cycle;Signal;HPM_P1;HPM_P2
2020/12/29 00:00:30;;;;;;;5.03;3.53;;;;;;;1.63;86.08;97128.09;4918923;29;20028;-77
2020/12/29 00:02:58;;;;;;;3.45;3.15;;;;;;;1.45;86.35;97111.63;4902389;29;20044;-78
2020/12/29 00:05:28;;;;;;;2.13;1.92;;;;;;;1.37;86.48;97123.00;4919148;29;20035;-77
2020/12/29 00:08:01;;;;;;;1.08;1.08;;;;;;;1.33;86.21;97133.56;4899368;29;20031;-78
2020/12/29 00:10:27;;;;;;;0.93;0.93;;;;;;;1.34;86.27;97150.50;4902820;29;20179;-77
2020/12/29 00:12:59;;;;;;;0.77;0.77;;;;;;;1.25;86.93;97141.47;4923946;29;20463;-78
2020/12/29 00:15:45;;;;;;;0.68;0.68;;;;;;;1.20;85.40;97161.97;4890007;29;20024;-79
2020/12/29 00:18:16;;;;;;;0.50;0.50;;;;;;;1.04;85.95;97147.06;4919897;29;20059;-76
2020/12/29 00:20:51;;;;;;;1.00;0.40;;;;;;;0.95;85.98;97148.72;4912123;29;20486;-76
2020/12/29 00:23:16;;;;;;;0.70;0.70;;;;;;;0.93;86.49;97150.91;4920056;29;20028;-78
2020/12/29 00:25:41;;;;;;;0.77;0.77;;;;;;;0.90;86.53;97154.19;4903370;29;20048;-78
2020/12/29 00:28:07;;;;;;;0.98;0.93;;;;;;;0.85;87.00;97153.13;4867337;29;20051;-79
2020/12/29 00:30:39;;;;;;;0.73;0.52;;;;;;;0.80;86.79;97157.75;4925703;29;20114;-78
2020/12/29 00:33:07;;;;;;;1.30;1.20;;;;;;;0.81;85.92;97170.91;4896017;29;20023;-76
2020/12/29 00:35:33;;;;;;;0.88;0.85;;;;;;;0.69;86.80;97167.81;4914233;29;20376;-76
2020/12/29 00:37:58;;;;;;;0.85;0.85;;;;;;;0.76;87.06;97178.22;4906740;29;20092;-77
2020/12/29 00:40:23;;;;;;;1.20;1.10;;;;;;;0.76;86.92;97173.66;4898734;29;20032;-76
2020/12/29 00:42:51;;;;;;;1.17;0.90;;;;;;;0.78;86.46;97176.88;4888817;29;20360;-77
2020/12/29 00:45:16;;;;;;;2.80;2.67;;;;;;;0.77;86.12;97177.94;4885130;29;20445;-78
2020/12/29 00:47:42;;;;;;;2.50;2.40;;;;;;;0.72;87.21;97186.06;4904990;29;20044;-77
2020/12/29 00:50:13;;;;;;;5.70;3.72;;;;;;;0.67;86.55;97178.03;4893132;29;20092;-79
2020/12/29 00:52:38;;;;;;;4.45;3.17;;;;;;;0.61;86.17;97174.56;4909293;29;20420;-78
2020/12/29 00:55:04;;;;;;;2.20;2.05;;;;;;;0.57;87.60;97180.78;4898662;29;20031;-78
2020/12/29 00:57:29;;;;;;;2.17;2.00;;;;;;;0.54;86.53;97171.41;4875648;29;20039;-79
2020/12/29 00:59:58;;;;;;;2.38;1.95;;;;;;;0.59;86.35;97173.25;4904102;29;20028;-76
2020/12/29 01:02:23;;;;;;;1.80;1.70;;;;;;;0.54;86.59;97165.22;4891001;29;20032;-77
2020/12/29 01:04:51;;;;;;;1.73;1.63;;;;;;;0.46;86.97;97153.97;4877211;29;20043;-78
2020/12/29 01:07:16;;;;;;;2.10;1.08;;;;;;;0.53;87.79;97172.50;4896103;29;20095;-75
2020/12/29 01:09:41;;;;;;;1.55;0.57;;;;;;;0.46;87.32;97164.72;4902221;29;20032;-76
2020/12/29 01:12:07;;;;;;;1.20;0.80;;;;;;;0.46;86.73;97170.13;4908305;29;20055;-80
2020/12/29 01:14:32;;;;;;;0.60;0.50;;;;;;;0.46;86.44;97175.50;4899047;29;20020;-80
2020/12/29 01:16:58;;;;;;;0.43;0.43;;;;;;;0.46;87.22;97175.50;4905520;29;20554;-82
2020/12/29 01:19:23;;;;;;;0.55;0.55;;;;;;;0.45;87.37;97175.78;4889839;29;20032;-81
2020/12/29 01:21:52;;;;;;;0.52;0.50;;;;;;;0.43;86.33;97176.06;4885462;29;20495;-82
2020/12/29 01:24:18;;;;;;;1.98;1.38;;;;;;;0.40;87.44;97181.19;4883820;29;20036;-80
2020/12/29 01:26:48;;;;;;;2.92;2.72;;;;;;;0.32;87.06;97174.50;4904261;29;20043;-79
2020/12/29 01:29:13;;;;;;;10.15;6.82;;;;;;;0.30;86.42;97182.06;4903736;29;20456;-80
2020/12/29 01:31:39;;;;;;;8.45;7.10;;;;;;;0.27;86.80;97188.78;4901165;29;20127;-79
2020/12/29 01:34:04;;;;;;;5.80;4.85;;;;;;;0.25;86.89;97190.13;4891583;29;20020;-80
2020/12/29 01:36:32;;;;;;;6.28;5.15;;;;;;;0.22;86.18;97190.69;4902194;29;20094;-80
2020/12/29 01:38:57;;;;;;;6.72;4.88;;;;;;;0.17;86.93;97197.69;4908140;29;20032;-80
2020/12/29 01:41:23;;;;;;;2.75;2.55;;;;;;;0.04;86.94;97190.25;4913451;29;20475;-80
2020/12/29 01:43:49;;;;;;;2.28;2.10;;;;;;;0.07;87.45;97203.13;4903798;29;20036;-79
2020/12/29 01:46:15;;;;;;;10.20;4.85;;;;;;;0.05;86.84;97208.00;4882048;29;20020;-82
2020/12/29 01:48:41;;;;;;;9.38;7.47;;;;;;;0.04;87.39;97217.13;4894018;29;20030;-81
2020/12/29 01:51:07;;;;;;;6.15;5.57;;;;;;;0.01;86.74;97223.03;4903312;29;20068;-81
2020/12/29 01:53:34;;;;;;;4.32;3.90;;;;;;;-0.04;87.22;97215.81;4888140;29;20040;-81
2020/12/29 01:56:02;;;;;;;3.72;3.45;;;;;;;-0.12;87.35;97202.16;4866757;29;20066;-80
2020/12/29 01:58:28;;;;;;;3.83;3.63;;;;;;;-0.06;87.16;97222.53;4893568;29;20029;-79
2020/12/29 02:00:53;;;;;;;2.13;2.03;;;;;;;-0.05;87.16;97227.63;4863408;29;20035;-79
2020/12/29 02:03:19;;;;;;;3.33;3.13;;;;;;;-0.11;87.20;97214.53;4895511;29;20048;-80
2020/12/29 02:05:47;;;;;;;2.75;2.17;;;;;;;-0.04;87.78;97231.16;4869732;29;20129;-80
2020/12/29 02:08:14;;;;;;;2.10;1.95;;;;;;;-0.04;87.20;97225.78;4898326;29;20475;-79
2020/12/29 02:10:41;;;;;;;4.03;2.60;;;;;;;-0.02;88.02;97234.34;4893872;29;20045;-81
2020/12/29 02:13:07;;;;;;;1.90;1.80;;;;;;;-0.10;87.70;97221.47;4887389;29;20024;-80
2020/12/29 02:15:32;;;;;;;5.50;5.07;;;;;;;-0.07;87.27;97223.63;4880395;29;20176;-79
2020/12/29 02:17:58;;;;;;;4.40;3.97;;;;;;;0.00;87.71;97232.22;4907135;29;20048;-80
2020/12/29 02:20:25;;;;;;;3.30;2.80;;;;;;;0.00;87.53;97237.59;4877660;29;20526;-80
2020/12/29 02:22:51;;;;;;;3.33;3.10;;;;;;;0.01;87.42;97233.00;4890250;29;20039;-78
2020/12/29 02:25:17;;;;;;;1.38;1.27;;;;;;;0.00;88.13;97232.22;4890094;29;20060;-79
2020/12/29 02:27:45;;;;;;;1.75;1.65;;;;;;;0.07;87.85;97232.69;4891796;29;20079;-80
2020/12/29 02:30:11;;;;;;;2.65;1.23;;;;;;;0.08;88.20;97239.69;4906436;29;20055;-78
2020/12/29 02:32:38;;;;;;;1.08;1.08;;;;;;;0.14;87.24;97233.19;4890673;29;20032;-79
2020/12/29 02:35:05;;;;;;;1.10;1.02;;;;;;;0.16;88.26;97230.22;4885046;29;20033;-80
2020/12/29 02:37:31;;;;;;;0.50;0.50;;;;;;;0.20;87.53;97230.50;4879997;29;20119;-79
2020/12/29 02:39:56;;;;;;;0.50;0.50;;;;;;;0.22;88.07;97231.00;4883231;29;20037;-79
2020/12/29 02:42:21;;;;;;;0.40;0.40;;;;;;;0.26;87.59;97229.38;4886318;29;20119;-79
2020/12/29 02:44:50;;;;;;;0.77;0.75;;;;;;;0.25;88.17;97233.97;4890597;29;20045;-79
2020/12/29 02:47:15;;;;;;;0.75;0.75;;;;;;;0.31;88.17;97245.50;4881264;29;20392;-78
2020/12/29 02:49:40;;;;;;;6.35;4.95;;;;;;;0.32;86.75;97250.59;4895746;29;20041;-73
2020/12/29 02:52:07;;;;;;;6.18;4.55;;;;;;;0.27;87.65;97252.50;4883196;29;20141;-72
2020/12/29 02:54:32;;;;;;;3.08;2.88;;;;;;;0.26;87.33;97253.56;4891514;29;20126;-74
2020/12/29 02:57:00;;;;;;;1.75;1.65;;;;;;;0.29;87.09;97261.06;4887976;29;20040;-75
2020/12/29 02:59:26;;;;;;;1.50;1.40;;;;;;;0.30;88.45;97257.31;4896255;29;20416;-74
2020/12/29 03:01:52;;;;;;;4.20;3.80;;;;;;;0.33;87.61;97270.19;4890377;29;20154;-74
2020/12/29 03:04:18;;;;;;;5.68;5.25;;;;;;;0.32;87.58;97265.91;4901866;29;20471;-74
2020/12/29 03:06:53;;;;;;;7.80;6.95;;;;;;;0.31;86.52;97267.78;4885067;29;20036;-74
2020/12/29 03:09:19;;;;;;;7.72;6.90;;;;;;;0.29;87.54;97285.28;4886121;29;20437;-73
2020/12/29 03:11:46;;;;;;;14.32;6.70;;;;;;;0.23;87.04;97273.72;4891488;29;20047;-72
2020/12/29 03:14:13;;;;;;;6.07;5.50;;;;;;;0.25;87.91;97276.97;4883139;29;20164;-73
2020/12/29 03:16:38;;;;;;;5.13;4.78;;;;;;;0.21;87.59;97275.09;4885707;29;20475;-73
2020/12/29 03:19:04;;;;;;;7.80;7.13;;;;;;;0.24;86.96;97285.31;4890047;29;20040;-73
2020/12/29 03:21:30;;;;;;;6.63;6.13;;;;;;;0.12;86.90;97270.28;4892247;29;20036;-72
2020/12/29 03:23:55;;;;;;;6.97;6.22;;;;;;;0.11;87.05;97282.13;4902141;29;20033;-71
2020/12/29 03:26:21;;;;;;;7.15;5.25;;;;;;;0.15;87.40;97280.50;4886584;29;20498;-72
2020/12/29 03:28:47;;;;;;;7.13;3.97;;;;;;;0.15;87.53;97285.88;4872067;29;20035;-74
2020/12/29 03:31:13;;;;;;;4.65;4.28;;;;;;;0.16;87.31;97282.09;4878505;29;20029;-74
2020/12/29 03:33:39;;;;;;;3.33;3.08;;;;;;;0.15;87.34;97282.38;4883844;29;20036;-73
2020/12/29 03:36:07;;;;;;;5.97;3.45;;;;;;;0.15;87.47;97288.56;4892272;29;20029;-72
2020/12/29 03:38:34;;;;;;;2.78;2.60;;;;;;;0.22;87.47;97295.50;4890686;29;20056;-72
2020/12/29 03:41:02;;;;;;;1.98;1.80;;;;;;;0.24;88.08;97290.69;4885137;29;20123;-72
2020/12/29 03:43:30;;;;;;;2.85;2.63;;;;;;;0.27;87.56;97290.91;4886034;29;20060;-72
2020/12/29 03:45:55;;;;;;;2.15;2.05;;;;;;;0.30;87.94;97294.94;4889550;29;20119;-72
2020/12/29 03:48:22;;;;;;;1.70;1.60;;;;;;;0.29;88.28;97293.34;4905492;29;20127;-73
2020/12/29 03:50:50;;;;;;;1.42;1.38;;;;;;;0.38;87.98;97301.63;4901888;29;20052;-72
2020/12/29 03:53:16;;;;;;;0.77;0.77;;;;;;;0.39;88.43;97304.03;4900815;29;20016;-72
2020/12/29 03:55:44;;;;;;;1.42;1.33;;;;;;;0.36;88.61;97285.78;4890444;29;20368;-72
2020/12/29 03:58:11;;;;;;;0.80;0.80;;;;;;;0.43;88.21;97288.16;4886446;29;20031;-72
2020/12/29 04:00:37;;;;;;;0.50;0.50;;;;;;;0.52;88.73;97298.03;4909080;29;20021;-72
2020/12/29 04:03:08;;;;;;;0.40;0.40;;;;;;;0.52;87.81;97303.44;4887964;29;20183;-73
2020/12/29 04:05:42;;;;;;;3.05;2.20;;;;;;;0.68;88.05;97306.03;4885594;29;20051;-72
2020/12/29 04:08:08;;;;;;;3.42;3.22;;;;;;;0.75;88.65;97301.16;4887884;29;20021;-72
2020/12/29 04:10:36;;;;;;;2.83;2.67;;;;;;;0.86;88.32;97300.03;4861514;29;20395;-73
2020/12/29 04:13:03;;;;;;;5.45;2.53;;;;;;;0.93;88.85;97298.91;4884232;29;20080;-73
2020/12/29 04:15:28;;;;;;;3.55;3.28;;;;;;;1.08;88.87;97304.19;4899095;29;20029;-73
2020/12/29 04:17:53;;;;;;;3.10;2.90;;;;;;;1.21;89.59;97303.53;4884088;29;20036;-73
2020/12/29 04:20:21;;;;;;;3.92;3.72;;;;;;;1.31;88.57;97308.03;4887004;29;20036;-73
2020/12/29 04:22:47;;;;;;;5.22;4.20;;;;;;;1.39;88.38;97309.31;4890464;29;20092;-74
2020/12/29 04:25:14;;;;;;;6.15;5.43;;;;;;;1.37;87.87;97289.94;4888777;29;20032;-74
2020/12/29 04:27:41;;;;;;;5.68;5.18;;;;;;;1.43;88.47;97288.84;4877716;29;20061;-73
2020/12/29 04:30:11;;;;;;;4.68;4.38;;;;;;;1.53;87.90;97299.50;4890469;29;20063;-73
2020/12/29 04:32:38;;;;;;;5.38;4.43;;;;;;;1.52;88.83;97295.19;4898397;29;20031;-74
2020/12/29 04:35:04;;;;;;;4.93;4.32;;;;;;;1.53;88.71;97294.13;4901093;29;20032;-73
2020/12/29 04:37:30;;;;;;;4.80;4.35;;;;;;;1.61;88.13;97302.66;4881647;29;20107;-73
2020/12/29 04:40:03;;;;;;;3.45;3.25;;;;;;;1.67;89.03;97315.00;4872666;29;20190;-73
2020/12/29 04:42:31;;;;;;;4.13;3.83;;;;;;;1.71;88.71;97318.75;4883160;29;20020;-73
2020/12/29 04:44:57;;;;;;;5.05;4.70;;;;;;;1.74;88.23;97310.09;4888756;29;20434;-74
2020/12/29 04:47:30;;;;;;;5.75;4.28;;;;;;;1.80;88.38;97314.31;4899291;29;20031;-74
2020/12/29 04:50:03;;;;;;;3.83;3.53;;;;;;;1.87;88.21;97309.41;4885333;29;20140;-75
2020/12/29 04:52:30;;;;;;;2.42;2.33;;;;;;;1.90;88.28;97308.84;4888590;29;20045;-74
2020/12/29 04:54:56;;;;;;;2.65;2.42;;;;;;;1.94;88.04;97305.56;4885189;29;20068;-73
2020/12/29 04:57:25;;;;;;;2.83;1.85;;;;;;;1.99;88.23;97308.22;4888748;29;20065;-72
2020/12/29 04:59:52;;;;;;;1.50;1.40;;;;;;;2.00;88.53;97301.72;4888812;29;20051;-73
2020/12/29 05:02:17;;;;;;;2.55;2.40;;;;;;;1.99;88.70;97308.22;4878942;29;20036;-72
2020/12/29 05:04:46;;;;;;;3.85;3.20;;;;;;;1.95;87.90;97304.47;4887911;29;20667;-72
2020/12/29 05:07:11;;;;;;;2.85;2.75;;;;;;;1.89;88.02;97306.44;4878037;29;20036;-72
2020/12/29 05:09:37;;;;;;;3.20;3.00;;;;;;;1.88;88.36;97311.03;4882018;29;20048;-73
2020/12/29 05:12:02;;;;;;;2.67;2.58;;;;;;;1.88;88.13;97313.72;4869461;29;20116;-74
2020/12/29 05:14:28;;;;;;;3.80;3.60;;;;;;;1.90;87.96;97318.81;4907470;29;20544;-74
2020/12/29 05:16:55;;;;;;;3.50;2.72;;;;;;;1.91;88.09;97313.13;4900585;29;20048;-73
2020/12/29 05:19:22;;;;;;;2.15;2.05;;;;;;;1.86;88.13;97313.19;4888946;29;20029;-74
2020/12/29 05:21:48;;;;;;;1.23;1.23;;;;;;;1.83;87.38;97313.75;4877559;29;20133;-73
2020/12/29 05:24:17;;;;;;;1.55;1.45;;;;;;;1.85;88.55;97322.34;4901578;29;20052;-74
2020/12/29 05:26:45;;;;;;;1.55;1.45;;;;;;;1.87;88.16;97314.78;4884354;29;20033;-74
2020/12/29 05:29:12;;;;;;;2.17;1.73;;;;;;;1.88;87.40;97315.59;4884095;29;20137;-73
2020/12/29 05:31:39;;;;;;;1.65;1.10;;;;;;;1.83;88.26;97323.75;4884059;29;20084;-74
2020/12/29 05:34:05;;;;;;;0.90;0.90;;;;;;;1.83;87.16;97327.22;4860128;29;20036;-73
2020/12/29 05:36:36;;;;;;;1.00;1.00;;;;;;;1.82;88.11;97333.69;4889631;29;20031;-74
2020/12/29 05:39:07;;;;;;;1.40;1.30;;;;;;;1.80;87.78;97335.88;4880203;29;20045;-73
2020/12/29 05:41:44;;;;;;;0.98;0.98;;;;;;;1.75;87.27;97327.84;4893477;29;20471;-73
2020/12/29 05:44:12;;;;;;;1.42;1.42;;;;;;;1.69;87.02;97328.97;4891044;29;20375;-72
2020/12/29 05:46:38;;;;;;;1.60;0.95;;;;;;;1.65;87.75;97322.53;4888262;29;20032;-72
2020/12/29 05:49:05;;;;;;;0.70;0.70;;;;;;;1.65;87.39;97334.16;4904314;29;20460;-72
2020/12/29 05:51:34;;;;;;;0.40;0.40;;;;;;;1.64;88.01;97337.91;4905683;29;20071;-73
2020/12/29 05:54:03;;;;;;;0.40;0.40;;;;;;;1.66;88.20;97340.31;4896052;29;20036;-73
2020/12/29 05:56:33;;;;;;;0.40;0.40;;;;;;;1.68;87.12;97349.75;4883989;29;20052;-73
2020/12/29 05:59:01;;;;;;;0.57;0.57;;;;;;;1.71;88.46;97348.38;4900307;29;20499;-73
2020/12/29 06:01:41;;;;;;;0.70;0.70;;;;;;;1.74;88.03;97353.19;4895474;29;20036;-73
2020/12/29 06:04:07;;;;;;;1.05;0.85;;;;;;;1.80;88.78;97357.44;4875755;29;20388;-73
2020/12/29 06:06:41;;;;;;;0.60;0.45;;;;;;;1.90;87.57;97357.34;4886240;29;20080;-73
2020/12/29 06:09:12;;;;;;;0.20;0.20;;;;;;;1.97;88.96;97356.19;4897647;29;20033;-73
2020/12/29 06:11:38;;;;;;;0.45;0.30;;;;;;;2.03;87.76;97357.75;4900642;29;20041;-72
2020/12/29 06:14:12;;;;;;;0.85;0.85;;;;;;;2.07;88.16;97356.91;4881986;29;20096;-72
2020/12/29 06:16:39;;;;;;;2.10;2.00;;;;;;;2.16;88.44;97364.34;4877181;29;20039;-73
2020/12/29 06:19:28;;;;;;;1.75;1.65;;;;;;;2.21;88.90;97367.81;4899290;29;20044;-72
2020/12/29 06:22:12;;;;;;;1.65;1.55;;;;;;;2.29;89.09;97373.66;4876972;29;20132;-72
2020/12/29 06:24:46;;;;;;;2.15;2.05;;;;;;;2.34;87.85;97371.72;4876146;29;20029;-72
2020/12/29 06:27:15;;;;;;;4.47;4.18;;;;;;;2.33;88.15;97380.09;4874971;29;20368;-72
2020/12/29 06:29:44;;;;;;;5.10;3.50;;;;;;;2.36;88.93;97379.53;4885193;29;20082;-72
2020/12/29 06:32:11;;;;;;;2.78;2.40;;;;;;;2.38;87.88;97371.94;4911246;29;20029;-73
2020/12/29 06:34:38;;;;;;;2.25;2.05;;;;;;;2.42;87.76;97375.66;4911535;29;20032;-72
2020/12/29 06:37:26;;;;;;;2.33;2.13;;;;;;;2.43;88.64;97369.19;4893800;29;20032;-76
2020/12/29 06:40:01;;;;;;;2.10;1.88;;;;;;;2.47;88.01;97375.63;4883957;29;20047;-73
2020/12/29 06:42:28;;;;;;;5.45;5.00;;;;;;;2.53;88.56;97379.84;4890382;29;20472;-74
2020/12/29 06:44:54;;;;;;;6.40;5.90;;;;;;;2.54;88.11;97392.25;4879860;29;20036;-73
2020/12/29 06:47:22;;;;;;;4.35;3.95;;;;;;;2.55;88.85;97390.34;4906110;29;20115;-73
2020/12/29 06:49:47;;;;;;;4.70;4.40;;;;;;;2.57;87.88;97389.00;4880217;29;20044;-73
2020/12/29 06:52:27;;;;;;;4.97;4.68;;;;;;;2.54;88.02;97380.66;4903733;29;20048;-73
2020/12/29 06:54:54;;;;;;;4.10;3.80;;;;;;;2.58;88.36;97387.88;4892927;29;20107;-73
2020/12/29 06:57:25;;;;;;;4.70;4.47;;;;;;;2.60;87.98;97390.31;4893691;29;20064;-73
2020/12/29 06:59:50;;;;;;;4.20;3.90;;;;;;;2.62;88.21;97394.31;4887812;29;20035;-73
2020/12/29 07:02:21;;;;;;;4.45;4.15;;;;;;;2.68;87.59;97405.06;4889996;29;20033;-73
2020/12/29 07:04:48;;;;;;;3.13;2.83;;;;;;;2.67;88.06;97398.03;4876832;29;20084;-71
2020/12/29 07:07:28;;;;;;;1.98;1.85;;;;;;;2.79;88.80;97410.03;4886923;29;20230;-72
2020/12/29 07:10:20;;;;;;;1.17;1.15;;;;;;;2.83;88.08;97415.66;4905372;29;20107;-72
2020/12/29 07:12:50;;;;;;;0.95;0.88;;;;;;;2.90;88.71;97423.41;4883858;29;20052;-72
2020/12/29 07:15:21;;;;;;;1.67;1.10;;;;;;;2.96;88.42;97431.16;4886856;29;20141;-72
2020/12/29 07:18:04;;;;;;;1.33;1.25;;;;;;;2.98;87.93;97425.47;4890858;29;20029;-72
2020/12/29 07:20:31;;;;;;;0.93;0.93;;;;;;;3.01;87.88;97437.56;4901516;29;20035;-72
2020/12/29 07:23:03;;;;;;;0.57;0.57;;;;;;;3.03;88.02;97430.00;4893380;29;20033;-72
2020/12/29 07:25:30;;;;;;;0.50;0.50;;;;;;;3.09;88.19;97439.63;4880955;29;20040;-72
2020/12/29 07:27:59;;;;;;;0.60;0.50;;;;;;;3.12;88.53;97439.03;4879519;29;20037;-71
2020/12/29 07:30:27;;;;;;;0.82;0.82;;;;;;;3.14;88.13;97444.97;4887371;29;20025;-71
2020/12/29 07:32:52;;;;;;;0.57;0.45;;;;;;;3.14;87.75;97453.06;4883512;29;20021;-73
2020/12/29 07:35:21;;;;;;;0.40;0.40;;;;;;;3.19;88.29;97465.69;4892750;29;20040;-73
2020/12/29 07:37:50;;;;;;;0.30;0.30;;;;;;;3.21;88.28;97475.09;4903451;29;20507;-74
2020/12/29 07:40:16;;;;;;;0.57;0.52;;;;;;;3.22;87.92;97475.91;4894570;29;20439;-73
2020/12/29 07:42:41;;;;;;;1.05;1.05;;;;;;;3.23;87.21;97485.63;4890395;29;20081;-72
2020/12/29 07:45:07;;;;;;;1.50;1.40;;;;;;;3.23;88.02;97493.75;4883464;29;20588;-71
2020/12/29 07:47:33;;;;;;;0.85;0.85;;;;;;;3.23;87.58;97494.53;4891467;29;20036;-72
2020/12/29 07:50:02;;;;;;;1.48;1.40;;;;;;;3.24;87.84;97496.16;4888621;29;20056;-72
2020/12/29 07:52:27;;;;;;;0.90;0.90;;;;;;;3.26;87.56;97493.16;4900198;29;20083;-71
2020/12/29 07:55:07;;;;;;;1.05;1.05;;;;;;;3.29;87.56;97504.16;4886820;29;20057;-72
2020/12/29 07:57:33;;;;;;;1.13;1.02;;;;;;;3.28;87.32;97499.84;4911083;29;20438;-72
2020/12/29 08:00:13;;;;;;;1.23;1.15;;;;;;;3.29;87.59;97509.56;4911249;29;20032;-72
2020/12/29 08:02:39;;;;;;;0.70;0.70;;;;;;;3.26;87.62;97504.75;4892781;29;20119;-76
2020/12/29 08:05:08;;;;;;;0.88;0.88;;;;;;;3.32;87.57;97525.19;4898911;29;20051;-74
2020/12/29 08:07:33;;;;;;;0.95;0.95;;;;;;;3.29;87.37;97517.69;4895092;29;20028;-73
2020/12/29 08:09:59;;;;;;;1.23;1.20;;;;;;;3.34;86.95;97526.81;4898084;29;20052;-75
2020/12/29 08:12:24;;;;;;;1.88;1.77;;;;;;;3.31;86.96;97539.00;4898190;29;20080;-81
2020/12/29 08:14:50;;;;;;;1.17;1.15;;;;;;;3.32;87.04;97541.41;4900744;29;20032;-74
2020/12/29 08:17:16;;;;;;;2.05;1.95;;;;;;;3.28;87.31;97540.38;4911750;29;20024;-79
2020/12/29 08:19:41;;;;;;;1.52;1.42;;;;;;;3.31;87.13;97545.22;4878057;29;20087;-76
2020/12/29 08:22:08;;;;;;;0.85;0.85;;;;;;;3.32;87.87;97546.81;4912449;29;20068;-79
2020/12/29 08:24:34;;;;;;;0.95;0.88;;;;;;;3.34;87.31;97553.81;4913849;29;20028;-77
2020/12/29 08:27:05;;;;;;;1.00;1.00;;;;;;;3.35;87.43;97556.25;4911168;29;20042;-78
2020/12/29 08:29:32;;;;;;;0.95;0.95;;;;;;;3.39;87.63;97561.84;4905966;29;20364;-76
2020/12/29 08:32:05;;;;;;;7.32;3.70;;;;;;;3.38;87.48;97569.16;4872771;29;20108;-76
2020/12/29 08:34:35;;;;;;;3.65;3.17;;;;;;;3.36;87.73;97573.25;4899019;29;20066;-76
2020/12/29 08:37:04;;;;;;;2.58;2.47;;;;;;;3.34;87.98;97576.22;4888020;29;20077;-77
2020/12/29 08:39:50;;;;;;;1.75;1.65;;;;;;;3.39;87.89;97583.47;4893190;29;20055;-77
2020/12/29 08:42:18;;;;;;;4.32;2.33;;;;;;;3.39;87.61;97588.88;4903953;29;20036;-76
2020/12/29 08:44:45;;;;;;;2.63;2.42;;;;;;;3.42;87.63;97591.03;4890656;29;20513;-77
2020/12/29 08:47:12;;;;;;;2.50;2.40;;;;;;;3.44;87.85;97596.94;4899587;29;20132;-77
2020/12/29 08:49:38;;;;;;;1.55;1.45;;;;;;;3.41;87.54;97597.50;4898528;29;20752;-77
2020/12/29 08:52:04;;;;;;;1.10;1.10;;;;;;;3.48;87.95;97609.56;4911190;29;20044;-77
2020/12/29 08:54:41;;;;;;;1.17;1.17;;;;;;;3.51;87.61;97610.88;4897162;29;20040;-78
2020/12/29 08:57:10;;;;;;;2.85;2.17;;;;;;;3.47;87.50;97607.16;4895796;29;20048;-78
2020/12/29 08:59:41;;;;;;;3.90;3.60;;;;;;;3.46;87.28;97614.47;4906195;29;20036;-76
2020/12/29 09:02:07;;;;;;;4.97;4.32;;;;;;;3.50;87.28;97630.88;4896931;29;20111;-77
2020/12/29 09:04:44;;;;;;;5.88;5.38;;;;;;;3.50;86.65;97639.00;4906396;29;20095;-77
2020/12/29 09:07:14;;;;;;;7.18;5.53;;;;;;;3.43;86.71;97628.56;4911427;29;20035;-77
2020/12/29 09:09:52;;;;;;;9.32;7.38;;;;;;;3.46;86.93;97643.34;4891470;29;20024;-77
2020/12/29 09:12:32;;;;;;;8.60;7.35;;;;;;;3.41;87.25;97646.13;4892671;29;20024;-77
2020/12/29 09:15:06;;;;;;;11.73;7.78;;;;;;;3.34;86.99;97640.25;4908862;29;20059;-76
2020/12/29 09:17:41;;;;;;;5.90;5.47;;;;;;;3.31;86.75;97647.84;4897523;29;20030;-77
2020/12/29 09:20:21;;;;;;;6.13;5.57;;;;;;;3.36;86.91;97656.97;4905679;29;20032;-77
2020/12/29 09:23:10;;;;;;;8.80;5.25;;;;;;;3.34;87.21;97653.78;4887815;29;20039;-80
2020/12/29 09:25:41;;;;;;;5.43;4.97;;;;;;;3.35;87.74;97658.88;4902530;29;20483;-80
2020/12/29 09:28:24;;;;;;;5.55;5.07;;;;;;;3.38;87.72;97673.72;4898745;29;20047;-76
2020/12/29 09:30:58;;;;;;;4.43;4.13;;;;;;;3.49;87.76;97691.44;4893646;29;20036;-76
2020/12/29 09:33:27;;;;;;;5.97;4.38;;;;;;;3.54;88.24;97699.47;4905907;29;20025;-78
2020/12/29 09:35:58;;;;;;;3.97;3.45;;;;;;;3.61;88.11;97696.44;4891402;29;20103;-77
2020/12/29 09:38:23;;;;;;;6.72;6.18;;;;;;;3.63;88.02;97697.75;4903263;29;20088;-75
2020/12/29 09:40:49;;;;;;;5.05;4.65;;;;;;;3.71;87.19;97709.03;4904412;29;20048;-77
2020/12/29 09:43:15;;;;;;;8.18;6.32;;;;;;;3.71;87.53;97709.03;4902048;29;20060;-79
2020/12/29 09:45:44;;;;;;;7.93;6.60;;;;;;;3.79;87.77;97716.50;4896956;29;20079;-74
2020/12/29 09:48:10;;;;;;;6.60;5.95;;;;;;;3.86;88.01;97714.28;4907523;29;20095;-77
2020/12/29 09:50:36;;;;;;;12.68;8.05;;;;;;;3.88;87.85;97709.38;4905497;29;20028;-78
2020/12/29 09:53:01;;;;;;;10.07;7.38;;;;;;;3.97;87.02;97721.19;4909266;29;20088;-78
2020/12/29 09:55:27;;;;;;;7.45;6.70;;;;;;;3.99;87.67;97716.28;4910790;29;20084;-77
2020/12/29 09:57:56;;;;;;;8.48;4.53;;;;;;;4.08;87.08;97718.34;4879913;29;20036;-76
2020/12/29 10:00:21;;;;;;;4.50;4.25;;;;;;;4.17;87.81;97728.22;4877247;29;20136;-76
2020/12/29 10:02:50;;;;;;;5.50;5.00;;;;;;;4.28;87.15;97734.31;4899083;29;20115;-76
2020/12/29 10:05:16;;;;;;;9.15;5.85;;;;;;;4.34;87.02;97738.56;4877035;29;20394;-77
2020/12/29 10:07:45;;;;;;;12.57;9.23;;;;;;;4.43;86.61;97743.31;4898189;29;20055;-77
2020/12/29 10:10:13;;;;;;;10.77;7.65;;;;;;;4.52;86.51;97755.09;4917266;29;20031;-77
2020/12/29 10:12:41;;;;;;;9.38;6.80;;;;;;;4.62;86.29;97754.97;4900455;29;20028;-78
2020/12/29 10:15:09;;;;;;;12.48;8.52;;;;;;;4.78;86.97;97757.47;4909410;29;20028;-78
2020/12/29 10:17:38;;;;;;;11.30;7.82;;;;;;;5.22;87.08;97761.66;4899854;29;20442;-79
2020/12/29 10:20:07;;;;;;;18.42;9.18;;;;;;;5.62;86.85;97759.31;4912049;29;20036;-79
2020/12/29 10:22:38;;;;;;;27.15;11.95;;;;;;;6.22;87.22;97765.84;4917104;29;20031;-77
2020/12/29 10:25:10;;;;;;;35.42;14.20;;;;;;;6.73;86.06;97753.09;4904057;29;20403;-78
2020/12/29 10:27:35;;;;;;;18.25;10.15;;;;;;;7.17;84.04;97767.84;4886438;29;20472;-78
2020/12/29 10:30:01;;;;;;;17.92;9.60;;;;;;;7.24;83.46;97759.25;4909737;29;20039;-77
2020/12/29 10:32:26;;;;;;;7.47;6.75;;;;;;;7.23;83.59;97776.66;4893755;29;20021;-78
2020/12/29 10:34:54;;;;;;;9.18;8.27;;;;;;;7.09;82.93;97791.09;4911423;29;20028;-78
2020/12/29 10:37:20;;;;;;;12.65;8.38;;;;;;;6.97;82.65;97785.44;4915852;29;20059;-80
2020/12/29 10:39:45;;;;;;;8.15;7.18;;;;;;;7.02;84.06;97781.78;4907232;29;20043;-79
2020/12/29 10:42:11;;;;;;;7.68;5.70;;;;;;;7.16;83.64;97793.41;4910290;29;20063;-78
2020/12/29 10:44:36;;;;;;;7.20;6.43;;;;;;;7.14;82.34;97799.16;4907997;29;20036;-77
2020/12/29 10:47:02;;;;;;;7.68;6.97;;;;;;;6.99;82.54;97799.50;4895364;29;20032;-75
2020/12/29 10:49:29;;;;;;;11.20;9.05;;;;;;;6.70;81.00;97797.97;4914519;29;20055;-76
2020/12/29 10:51:59;;;;;;;10.05;7.88;;;;;;;6.29;81.47;97798.81;4887829;29;20043;-78
2020/12/29 10:54:25;;;;;;;9.30;7.85;;;;;;;5.92;82.07;97795.16;4881228;29;20075;-77
2020/12/29 10:56:50;;;;;;;7.65;6.32;;;;;;;5.66;82.55;97792.09;4882518;29;20064;-78
2020/12/29 10:59:16;;;;;;;13.73;7.20;;;;;;;5.57;83.32;97805.53;4910729;29;20033;-78
2020/12/29 11:01:41;;;;;;;6.47;5.97;;;;;;;5.36;83.78;97811.28;4887671;29;20127;-78
2020/12/29 11:04:07;;;;;;;10.30;7.38;;;;;;;5.14;83.63;97821.91;4911469;29;20033;-76
2020/12/29 11:06:44;;;;;;;;;;;;;;;;;;;;;
2020/12/29 11:09:13;;;;;;;12.02;8.32;;;;;;;4.59;84.13;97798.06;4905624;29;20100;-78
2020/12/29 11:11:40;;;;;;;9.70;7.82;;;;;;;4.39;84.03;97805.31;4896105;29;20435;-78
2020/12/29 11:14:08;;;;;;;9.23;6.75;;;;;;;4.40;85.10;97811.56;4899119;29;20461;-79
2020/12/29 11:16:33;;;;;;;7.57;5.88;;;;;;;4.33;85.88;97815.41;4897727;29;20030;-78
2020/12/29 11:18:59;;;;;;;14.60;9.55;;;;;;;4.35;84.59;97818.63;4887397;29;20036;-76
2020/12/29 11:21:27;;;;;;;13.45;9.65;;;;;;;4.39;85.22;97831.59;4879626;29;20028;-76
2020/12/29 11:24:03;;;;;;;10.43;9.23;;;;;;;4.34;85.55;97821.63;4909510;29;20476;-78
2020/12/29 11:26:28;;;;;;;12.20;8.32;;;;;;;4.46;86.43;97827.44;4911777;29;20040;-78
2020/12/29 11:28:53;;;;;;;16.23;9.98;;;;;;;4.69;86.26;97833.91;4895587;29;20116;-77
2020/12/29 11:31:21;;;;;;;15.20;10.32;;;;;;;4.86;86.31;97838.84;4914981;29;20133;-78
2020/12/29 11:33:49;;;;;;;10.15;8.10;;;;;;;5.02;86.61;97833.19;4910067;29;20024;-79
2020/12/29 11:36:22;;;;;;;10.23;8.98;;;;;;;5.25;86.51;97839.63;4902164;29;20021;-79
2020/12/29 11:38:50;;;;;;;16.50;10.82;;;;;;;5.63;86.38;97842.28;4912491;29;20039;-79
2020/12/29 11:41:16;;;;;;;15.75;9.30;;;;;;;5.98;86.00;97852.84;4916948;29;20052;-78
2020/12/29 11:43:42;;;;;;;21.05;11.65;;;;;;;6.28;85.46;97846.88;4898273;29;20075;-81
2020/12/29 11:46:11;;;;;;;20.50;10.68;;;;;;;6.78;85.34;97843.41;4911964;29;20379;-80